createdAt,value
2018-06-22T00:01:43.788Z,12.30
2018-06-22T00:04:12.476Z,10.33
2018-06-22T00:06:41.030Z,12.67
2018-06-22T00:09:10.804Z,11.60
2018-06-22T00:11:39.703Z,11.03
2018-06-22T00:14:08.332Z,9.67
2018-06-22T00:16:37.511Z,9.20
2018-06-22T00:19:06.065Z,10.07
2018-06-22T00:21:34.685Z,10.30
2018-06-22T00:24:03.195Z,8.23
2018-06-22T00:26:31.678Z,9.47
2018-06-22T00:29:00.188Z,8.23
2018-06-22T00:31:28.646Z,10.00
2018-06-22T00:33:57.149Z,8.20
2018-06-22T00:36:25.727Z,7.60
2018-06-22T00:38:54.244Z,7.87
2018-06-22T00:41:22.951Z,11.27
2018-06-22T00:43:51.808Z,8.57
2018-06-22T00:46:20.508Z,9.70
2018-06-22T00:48:49.490Z,10.33
2018-06-22T00:51:18.127Z,7.87
2018-06-22T00:53:57.993Z,15.20
2018-06-22T00:56:26.544Z,10.17
2018-06-22T00:58:55.289Z,11.17
2018-06-22T01:01:23.792Z,9.37
2018-06-22T01:03:52.279Z,16.03
2018-06-22T01:06:20.763Z,9.20
2018-06-22T01:08:49.419Z,11.97
2018-06-22T01:11:17.863Z,8.10
2018-06-22T01:13:46.663Z,7.33
2018-06-22T01:16:15.431Z,13.27
2018-06-22T01:18:43.901Z,14.33
2018-06-22T01:21:12.394Z,10.93
2018-06-22T01:23:40.913Z,13.03
2018-06-22T01:26:09.468Z,13.87
2018-06-22T01:28:38.003Z,12.17
2018-06-22T01:31:06.511Z,15.77
2018-06-22T01:33:35.210Z,9.60
2018-06-22T01:36:03.730Z,12.30
2018-06-22T01:38:32.400Z,11.03
2018-06-22T01:41:00.899Z,9.57
2018-06-22T01:43:29.570Z,12.80
2018-06-22T01:45:58.049Z,13.73
2018-06-22T01:48:26.666Z,9.40
2018-06-22T01:50:55.173Z,8.53
2018-06-22T01:53:24.059Z,11.70
2018-06-22T01:55:52.543Z,10.67
2018-06-22T01:58:21.018Z,8.43
2018-06-22T02:00:49.534Z,12.33
2018-06-22T02:03:18.045Z,10.87
2018-06-22T02:05:46.668Z,13.03
2018-06-22T02:08:15.326Z,12.13
2018-06-22T02:10:43.814Z,13.43
2018-06-22T02:13:12.343Z,7.70
2018-06-22T02:15:41.002Z,8.83
2018-06-22T02:18:09.493Z,13.10
2018-06-22T02:20:38.303Z,7.20
2018-06-22T02:23:06.848Z,11.30
2018-06-22T02:25:35.300Z,9.37
2018-06-22T02:28:03.795Z,9.23
2018-06-22T02:30:32.350Z,8.73
2018-06-22T02:33:00.843Z,12.87
2018-06-22T02:35:29.521Z,10.40
2018-06-22T02:37:58.046Z,11.27
2018-06-22T02:40:27.206Z,16.47
2018-06-22T02:42:55.766Z,10.00
2018-06-22T02:45:24.460Z,10.73
2018-06-22T02:47:52.960Z,13.40
2018-06-22T02:50:21.552Z,9.13
2018-06-22T02:52:50.171Z,12.30
2018-06-22T02:55:18.689Z,12.90
2018-06-22T02:57:47.176Z,9.23
2018-06-22T03:00:15.664Z,16.97
2018-06-22T03:02:44.194Z,10.13
2018-06-22T03:05:12.699Z,12.40
2018-06-22T03:07:41.206Z,10.70
2018-06-22T03:10:09.874Z,13.77
2018-06-22T03:12:38.472Z,8.07
2018-06-22T03:15:06.942Z,8.57
2018-06-22T03:17:35.522Z,15.93
2018-06-22T03:20:04.200Z,9.23
2018-06-22T03:22:32.711Z,11.30
2018-06-22T03:25:01.218Z,9.63
2018-06-22T03:27:29.698Z,13.10
2018-06-22T03:29:58.640Z,15.57
2018-06-22T03:32:27.181Z,15.43
2018-06-22T03:34:55.972Z,13.57
2018-06-22T03:37:24.450Z,10.63
2018-06-22T03:39:53.056Z,17.13
2018-06-22T03:42:21.564Z,14.03
2018-06-22T03:44:50.246Z,20.47
2018-06-22T03:47:18.737Z,13.17
2018-06-22T03:49:47.187Z,16.30
2018-06-22T03:52:15.921Z,16.60
2018-06-22T03:54:44.678Z,13.80
2018-06-22T03:57:13.214Z,16.63
2018-06-22T03:59:41.798Z,10.10
2018-06-22T04:02:10.392Z,19.30
2018-06-22T04:04:38.958Z,11.37
2018-06-22T04:07:07.423Z,20.17
2018-06-22T04:09:36.023Z,14.03
2018-06-22T04:12:04.493Z,20.33
2018-06-22T04:14:32.999Z,16.17
2018-06-22T04:17:01.508Z,18.77
2018-06-22T04:19:30.036Z,16.77
2018-06-22T04:21:58.559Z,18.03
2018-06-22T04:24:27.076Z,17.87
2018-06-22T04:26:55.535Z,24.80
2018-06-22T04:29:24.181Z,19.50
2018-06-22T04:31:52.694Z,17.53
2018-06-22T04:34:21.207Z,20.63
2018-06-22T04:36:49.721Z,17.80
2018-06-22T04:39:18.446Z,27.53
2018-06-22T04:41:46.944Z,16.77
2018-06-22T04:44:15.480Z,22.07
2018-06-22T04:46:44.064Z,18.27
2018-06-22T04:49:12.757Z,23.80
2018-06-22T04:51:41.268Z,18.80
2018-06-22T04:54:09.791Z,20.60
2018-06-22T04:56:38.255Z,18.80
2018-06-22T04:59:06.935Z,26.33
2018-06-22T05:01:35.441Z,21.43
2018-06-22T05:04:04.549Z,19.07
2018-06-22T05:06:33.186Z,15.97
2018-06-22T05:09:01.919Z,10.70
2018-06-22T05:11:30.415Z,16.87
2018-06-22T05:13:58.912Z,16.80
2018-06-22T05:16:27.090Z,17.80
2018-06-22T05:18:55.873Z,16.00
2018-06-22T05:21:24.345Z,16.20
2018-06-22T05:23:52.831Z,19.03
2018-06-22T05:26:21.183Z,14.53
2018-06-22T05:28:49.719Z,15.07
2018-06-22T05:31:18.309Z,16.07
2018-06-22T05:33:46.819Z,17.23
2018-06-22T05:36:15.419Z,14.87
2018-06-22T05:38:44.062Z,12.73
2018-06-22T05:41:12.559Z,16.20
2018-06-22T05:43:41.160Z,16.40
2018-06-22T05:46:09.727Z,15.37
2018-06-22T05:48:38.322Z,11.87
2018-06-22T05:51:06.789Z,17.70
2018-06-22T05:53:35.274Z,9.40
2018-06-22T05:56:03.983Z,20.03
2018-06-22T05:58:32.519Z,17.63
2018-06-22T06:01:01.119Z,18.70
2018-06-22T06:03:29.657Z,18.10
2018-06-22T06:05:58.411Z,13.97
2018-06-22T06:08:26.990Z,19.43
2018-06-22T06:10:55.596Z,15.27
2018-06-22T06:13:24.320Z,17.10
2018-06-22T06:15:52.927Z,18.33
2018-06-22T06:18:21.450Z,13.70
2018-06-22T06:20:50.245Z,14.17
2018-06-22T06:23:18.955Z,11.77
2018-06-22T06:25:47.640Z,12.53
2018-06-22T06:28:16.450Z,15.47
2018-06-22T06:30:44.976Z,18.13
2018-06-22T06:33:13.464Z,23.53
2018-06-22T06:35:42.157Z,12.33
2018-06-22T06:38:10.648Z,22.60
2018-06-22T06:40:39.128Z,16.87
2018-06-22T06:43:07.756Z,21.27
2018-06-22T06:45:36.365Z,12.73
2018-06-22T06:48:05.249Z,22.03
2018-06-22T06:50:33.912Z,18.13
2018-06-22T06:53:02.703Z,22.10
2018-06-22T06:55:31.232Z,17.30
2018-06-22T06:57:59.747Z,20.83
2018-06-22T07:00:28.314Z,21.17
2018-06-22T07:02:57.006Z,16.87
2018-06-22T07:05:25.646Z,15.83
2018-06-22T07:07:55.279Z,11.43
2018-06-22T07:10:24.082Z,15.83
2018-06-22T07:12:52.592Z,12.13
2018-06-22T07:15:21.152Z,17.50
2018-06-22T07:17:49.834Z,11.93
2018-06-22T07:20:18.678Z,13.83
2018-06-22T07:22:47.192Z,5.57
2018-06-22T07:25:15.690Z,10.47
2018-06-22T07:27:44.299Z,8.57
2018-06-22T07:30:12.852Z,6.40
2018-06-22T07:32:41.480Z,10.07
2018-06-22T07:35:10.204Z,10.53
2018-06-22T07:37:38.724Z,5.10
2018-06-22T07:40:07.419Z,12.47
2018-06-22T07:42:35.952Z,12.67
2018-06-22T07:45:04.807Z,8.77
2018-06-22T07:47:33.347Z,9.27
2018-06-22T07:50:01.896Z,9.87
2018-06-22T07:52:30.763Z,11.73
2018-06-22T07:54:59.601Z,6.23
2018-06-22T07:57:28.111Z,9.57
2018-06-22T07:59:57.506Z,12.93
2018-06-22T08:02:26.081Z,10.50
2018-06-22T08:04:54.622Z,18.23
2018-06-22T08:07:23.273Z,13.50
2018-06-22T08:09:51.992Z,11.77
2018-06-22T08:12:20.288Z,8.47
2018-06-22T08:14:48.782Z,10.93
2018-06-22T08:17:17.835Z,7.57
2018-06-22T08:19:46.728Z,11.50
2018-06-22T08:22:15.249Z,10.83
2018-06-22T08:24:44.097Z,10.40
2018-06-22T08:27:12.858Z,9.83
2018-06-22T08:29:41.506Z,9.90
2018-06-22T08:32:10.500Z,11.43
2018-06-22T08:34:39.021Z,11.60
2018-06-22T08:37:07.543Z,11.17
2018-06-22T08:39:35.780Z,9.87
2018-06-22T08:42:04.594Z,14.07
2018-06-22T08:44:33.188Z,9.33
2018-06-22T08:47:01.876Z,11.97
2018-06-22T08:49:30.455Z,12.40
2018-06-22T08:51:59.008Z,8.43
2018-06-22T08:54:27.532Z,9.53
2018-06-22T08:56:56.117Z,9.50
2018-06-22T08:59:24.651Z,14.33
2018-06-22T09:01:53.152Z,8.37
2018-06-22T09:04:21.732Z,13.80
2018-06-22T09:06:50.260Z,14.43
2018-06-22T09:09:22.002Z,13.07
2018-06-22T09:11:50.699Z,14.60
2018-06-22T09:14:19.252Z,10.93
2018-06-22T09:16:47.821Z,13.13
2018-06-22T09:19:16.562Z,12.47
2018-06-22T09:21:45.082Z,13.90
2018-06-22T09:24:13.754Z,10.83
2018-06-22T09:26:42.491Z,12.07
2018-06-22T09:29:11.275Z,11.47
2018-06-22T09:31:40.476Z,12.50
2018-06-22T09:34:09.153Z,16.17
2018-06-22T09:36:37.974Z,16.53
2018-06-22T09:39:09.005Z,14.50
2018-06-22T09:41:37.872Z,11.30
2018-06-22T09:44:06.894Z,7.83
2018-06-22T09:46:35.955Z,9.07
2018-06-22T09:49:04.977Z,13.53
2018-06-22T09:51:33.944Z,11.27
2018-06-22T09:54:02.751Z,6.60
2018-06-22T09:56:31.408Z,14.80
2018-06-22T09:58:59.678Z,9.80
2018-06-22T10:01:28.419Z,13.10
2018-06-22T10:03:57.346Z,10.50
2018-06-22T10:06:26.128Z,12.53
2018-06-22T10:08:54.703Z,9.53
2018-06-22T10:11:23.401Z,8.17
2018-06-22T10:13:51.943Z,8.93
2018-06-22T10:16:20.680Z,10.17
2018-06-22T10:18:49.255Z,10.47
2018-06-22T10:21:17.846Z,9.00
2018-06-22T10:23:46.369Z,10.17
2018-06-22T10:26:15.076Z,11.27
2018-06-22T10:28:43.757Z,9.13
2018-06-22T10:31:12.526Z,15.25
2018-06-22T10:33:41.067Z,11.87
2018-06-22T10:36:09.652Z,6.37
2018-06-22T10:38:38.276Z,10.23
2018-06-22T10:41:07.165Z,10.53
2018-06-22T10:43:35.815Z,14.77
2018-06-22T10:46:04.328Z,11.40
2018-06-22T10:48:32.799Z,7.50
2018-06-22T10:51:01.343Z,10.57
2018-06-22T10:53:30.193Z,7.60
2018-06-22T10:55:58.819Z,5.50
2018-06-22T10:58:27.286Z,9.23
2018-06-22T11:00:56.042Z,10.83
2018-06-22T11:03:24.597Z,8.47
2018-06-22T11:05:53.385Z,5.57
2018-06-22T11:08:22.156Z,5.07
2018-06-22T11:10:50.728Z,9.17
2018-06-22T11:13:19.239Z,12.03
2018-06-22T11:15:47.620Z,7.83
2018-06-22T11:18:16.329Z,7.57
2018-06-22T11:20:44.792Z,10.23
2018-06-22T11:23:13.356Z,7.03
2018-06-22T11:25:42.231Z,2.97
2018-06-22T11:28:10.980Z,7.60
2018-06-22T11:30:39.691Z,7.73
2018-06-22T11:33:08.445Z,6.33
2018-06-22T11:35:37.344Z,3.10
2018-06-22T11:38:05.926Z,3.63
2018-06-22T11:40:34.606Z,6.27
2018-06-22T11:43:03.369Z,5.83
2018-06-22T11:45:32.043Z,5.50
2018-06-22T11:48:00.885Z,8.00
2018-06-22T11:50:29.478Z,9.13
2018-06-22T11:52:58.537Z,8.00
2018-06-22T11:55:27.165Z,8.97
2018-06-22T11:57:56.192Z,7.70
2018-06-22T12:00:25.019Z,6.47
2018-06-22T12:02:54.023Z,4.07
2018-06-22T12:05:22.808Z,5.73
2018-06-22T12:07:51.641Z,9.90
2018-06-22T12:10:20.321Z,3.50
2018-06-22T12:12:49.449Z,5.03
2018-06-22T12:15:18.467Z,3.97
2018-06-22T12:17:47.200Z,3.23
2018-06-22T12:20:15.982Z,5.07
2018-06-22T12:22:44.954Z,5.43
2018-06-22T12:25:13.860Z,6.87
2018-06-22T12:27:42.621Z,3.90
2018-06-22T12:30:11.024Z,3.73
2018-06-22T12:32:39.883Z,5.30
2018-06-22T12:35:08.468Z,7.37
2018-06-22T12:37:37.161Z,5.67
2018-06-22T12:40:05.936Z,3.20
2018-06-22T12:42:34.906Z,4.77
2018-06-22T12:45:03.784Z,5.50
2018-06-22T12:47:32.402Z,5.80
2018-06-22T12:50:01.314Z,4.90
2018-06-22T12:52:29.858Z,5.97
2018-06-22T12:54:58.607Z,6.37
2018-06-22T12:57:27.248Z,5.40
2018-06-22T12:59:55.875Z,3.57
2018-06-22T13:02:25.637Z,5.13
2018-06-22T13:04:54.933Z,3.33
2018-06-22T13:07:23.528Z,3.63
2018-06-22T13:09:52.423Z,3.70
2018-06-22T13:12:21.187Z,5.23
2018-06-22T13:14:49.767Z,3.73
2018-06-22T13:17:18.456Z,4.17
2018-06-22T13:19:47.030Z,7.17
2018-06-22T13:22:15.682Z,4.67
2018-06-22T13:24:44.248Z,6.17
2018-06-22T13:27:13.011Z,8.33
2018-06-22T13:29:41.900Z,13.30
2018-06-22T13:32:10.563Z,3.33
2018-06-22T13:34:39.184Z,4.67
2018-06-22T13:37:07.911Z,3.87
2018-06-22T13:39:36.869Z,6.93
2018-06-22T13:42:06.841Z,4.80
2018-06-22T13:44:35.805Z,6.10
2018-06-22T13:47:04.461Z,3.33
2018-06-22T13:49:33.025Z,2.97
2018-06-22T13:52:01.588Z,4.00
2018-06-22T13:54:30.190Z,2.73
2018-06-22T13:56:58.965Z,5.20
2018-06-22T13:59:27.786Z,5.50
2018-06-22T14:01:56.750Z,6.43
2018-06-22T14:04:31.004Z,6.40
2018-06-22T14:06:59.941Z,3.53
2018-06-22T14:09:28.587Z,2.77
2018-06-22T14:11:57.249Z,4.03
2018-06-22T14:14:26.153Z,4.77
2018-06-22T14:16:54.995Z,6.00
2018-06-22T14:19:23.764Z,4.30
2018-06-22T14:21:52.362Z,4.87
2018-06-22T14:24:21.131Z,3.87
2018-06-22T14:26:50.033Z,4.80
2018-06-22T14:29:19.013Z,4.47
2018-06-22T14:31:47.571Z,5.63
2018-06-22T14:34:16.142Z,4.33
2018-06-22T14:36:44.857Z,6.67
2018-06-22T14:39:13.684Z,7.00
2018-06-22T14:41:42.392Z,4.70
2018-06-22T14:44:11.655Z,5.17
2018-06-22T14:46:40.171Z,6.37
2018-06-22T14:49:08.748Z,5.63
2018-06-22T14:51:37.353Z,5.73
2018-06-22T14:54:11.569Z,5.50
2018-06-22T14:56:51.997Z,5.23
2018-06-22T14:59:25.990Z,4.20
2018-06-22T15:02:00.069Z,4.03
2018-06-22T15:04:33.950Z,5.90
2018-06-22T15:07:08.022Z,4.00
2018-06-22T15:09:37.171Z,5.57
2018-06-22T15:12:05.919Z,3.67
2018-06-22T15:14:34.546Z,4.07
2018-06-22T15:17:03.503Z,6.10
2018-06-22T15:19:32.010Z,2.67
2018-06-22T15:22:00.574Z,6.33
2018-06-22T15:24:29.282Z,4.77
2018-06-22T15:26:58.215Z,3.47
2018-06-22T15:29:27.038Z,4.33
2018-06-22T15:31:55.923Z,4.03
2018-06-22T15:34:29.790Z,3.58
2018-06-22T15:37:04.155Z,4.17
2018-06-22T15:39:38.084Z,3.00
2018-06-22T15:43:10.606Z,3.33
2018-06-22T15:45:44.445Z,5.53
2018-06-22T15:48:18.709Z,7.03
2018-06-22T15:50:52.556Z,4.87
2018-06-22T15:53:26.376Z,5.20
2018-06-22T15:55:59.134Z,3.90
2018-06-22T15:58:28.143Z,4.27
2018-06-22T16:00:56.737Z,6.50
2018-06-22T16:03:30.616Z,5.33
2018-06-22T16:05:59.361Z,3.93
2018-06-22T16:08:28.114Z,5.93
2018-06-22T16:10:57.125Z,6.90
2018-06-22T16:13:25.908Z,5.23
2018-06-22T16:15:59.619Z,3.60
2018-06-22T16:18:33.589Z,7.33
2018-06-22T16:21:07.430Z,5.33
2018-06-22T16:23:41.471Z,7.57
2018-06-22T16:26:15.498Z,6.33
2018-06-22T16:28:44.362Z,6.70
2018-06-22T16:31:13.277Z,3.60
2018-06-22T16:33:46.133Z,5.40
2018-06-22T16:36:14.753Z,4.07
2018-06-22T16:38:43.377Z,3.80
2018-06-22T16:41:12.243Z,5.53
2018-06-22T16:43:40.823Z,3.90
2018-06-22T16:46:09.432Z,6.80
2018-06-22T16:48:38.137Z,5.33
2018-06-22T16:51:07.035Z,4.20
2018-06-22T16:53:35.955Z,4.00
2018-06-22T16:56:04.914Z,2.83
2018-06-22T16:58:39.904Z,2.93
2018-06-22T17:01:10.836Z,3.33
2018-06-22T17:03:39.674Z,5.43
2018-06-22T17:06:09.048Z,2.90
2018-06-22T17:08:42.968Z,5.13
2018-06-22T17:11:17.025Z,5.23
2018-06-22T17:13:50.947Z,3.27
2018-06-22T17:16:25.166Z,5.03
2018-06-22T17:18:56.193Z,3.23
2018-06-22T17:21:25.079Z,5.27
2018-06-22T17:23:54.319Z,6.77
2018-06-22T17:26:23.147Z,6.10
2018-06-22T17:28:52.036Z,4.63
2018-06-22T17:31:20.661Z,9.27
2018-06-22T17:33:49.215Z,3.10
2018-06-22T17:36:18.064Z,6.77
2018-06-22T17:38:46.792Z,8.43
2018-06-22T17:41:15.441Z,5.23
2018-06-22T17:43:44.190Z,8.67
2018-06-22T17:46:12.775Z,6.33
2018-06-22T17:48:41.357Z,5.50
2018-06-22T17:51:10.073Z,6.53
2018-06-22T17:53:39.052Z,6.87
2018-06-22T17:56:07.679Z,9.13
2018-06-22T17:58:36.207Z,8.10
2018-06-22T18:01:10.129Z,10.27
2018-06-22T18:03:44.081Z,8.47
2018-06-22T18:08:24.016Z,11.83
2018-06-22T18:10:58.120Z,9.13
2018-06-22T18:13:27.038Z,8.90
2018-06-22T18:15:55.839Z,6.60
2018-06-22T18:18:24.374Z,5.43
2018-06-22T18:20:53.045Z,7.47
2018-06-22T18:23:22.011Z,7.50
2018-06-22T18:25:50.786Z,8.37
2018-06-22T18:28:19.367Z,6.83
2018-06-22T18:30:48.291Z,7.67
2018-06-22T18:33:17.085Z,11.43
2018-06-22T18:35:45.828Z,6.60
2018-06-22T18:38:14.452Z,10.40
2018-06-22T18:40:43.194Z,12.30
2018-06-22T18:43:17.200Z,8.17
2018-06-22T18:45:46.070Z,6.73
2018-06-22T18:48:14.941Z,12.27
2018-06-22T18:50:43.718Z,6.90
2018-06-22T18:55:24.364Z,9.60
2018-06-22T18:57:58.506Z,6.47
2018-06-22T19:00:32.322Z,10.97
2018-06-22T19:03:06.255Z,7.93
2018-06-22T19:05:34.811Z,8.97
2018-06-22T19:08:03.560Z,8.23
2018-06-22T19:10:31.792Z,9.60
2018-06-22T19:13:00.424Z,8.13
2018-06-22T19:15:28.967Z,8.67
2018-06-22T19:17:57.899Z,8.17
2018-06-22T19:20:26.142Z,6.30
2018-06-22T19:22:54.987Z,7.80
2018-06-22T19:25:23.732Z,11.93
2018-06-22T19:27:52.486Z,8.80
2018-06-22T19:30:21.361Z,10.73
2018-06-22T19:32:50.128Z,9.83
2018-06-22T19:35:18.631Z,6.97
2018-06-22T19:37:47.395Z,8.17
2018-06-22T19:40:15.940Z,7.33
2018-06-22T19:42:44.485Z,8.57
2018-06-22T19:45:18.473Z,4.77
2018-06-22T19:47:52.518Z,5.47
2018-06-22T19:50:26.353Z,8.93
2018-06-22T19:53:00.163Z,8.60
2018-06-22T19:55:29.368Z,5.47
2018-06-22T19:57:58.421Z,11.73
2018-06-22T20:00:27.164Z,9.27
2018-06-22T20:02:55.793Z,13.07
2018-06-22T20:05:24.388Z,8.40
2018-06-22T20:07:53.379Z,9.00
2018-06-22T20:10:22.233Z,11.50
2018-06-22T20:12:50.779Z,10.30
2018-06-22T20:15:23.633Z,8.40
2018-06-22T20:17:53.387Z,9.43
2018-06-22T20:20:22.261Z,7.20
2018-06-22T20:22:51.518Z,6.03
2018-06-22T20:25:25.684Z,11.43
2018-06-22T20:27:54.577Z,8.40
2018-06-22T20:30:24.101Z,14.07
2018-06-22T20:32:52.833Z,9.23
2018-06-22T20:35:26.898Z,8.33
2018-06-22T20:38:00.960Z,6.90
2018-06-22T20:40:35.303Z,10.30
2018-06-22T20:43:09.196Z,7.33
2018-06-22T20:45:47.032Z,7.73
2018-06-22T20:48:21.171Z,6.00
2018-06-22T20:50:50.059Z,6.00
2018-06-22T20:53:19.042Z,7.83
2018-06-22T20:55:48.181Z,9.07
2018-06-22T20:58:16.889Z,10.60
2018-06-22T21:00:45.413Z,12.20
2018-06-22T21:03:14.187Z,6.13
2018-06-22T21:05:42.755Z,9.03
2018-06-22T21:08:11.649Z,8.93
2018-06-22T21:10:40.486Z,10.67
2018-06-22T21:13:09.428Z,7.87
2018-06-22T21:15:38.234Z,9.73
2018-06-22T21:18:06.885Z,7.93
2018-06-22T21:20:35.835Z,8.40
2018-06-22T21:23:04.437Z,6.40
2018-06-22T21:25:33.085Z,9.90
2018-06-22T21:28:06.921Z,6.40
2018-06-22T21:30:40.955Z,13.60
2018-06-22T21:33:15.020Z,9.87
2018-06-22T21:35:49.095Z,9.00
2018-06-22T21:38:23.161Z,11.30
2018-06-22T21:40:52.012Z,9.87
2018-06-22T21:43:20.588Z,12.60
2018-06-22T21:45:49.195Z,11.27
2018-06-22T21:48:17.829Z,8.50
2018-06-22T21:50:46.421Z,9.33
2018-06-22T21:53:15.044Z,10.07
2018-06-22T21:55:43.680Z,9.77
2018-06-22T21:58:12.110Z,11.97
2018-06-22T22:00:41.017Z,12.53
2018-06-22T22:03:09.530Z,10.90
2018-06-22T22:05:38.191Z,10.73
2018-06-22T22:08:06.934Z,12.37
2018-06-22T22:10:41.004Z,12.73
2018-06-22T22:13:09.667Z,11.50
2018-06-22T22:15:38.522Z,10.53
2018-06-22T22:18:07.453Z,14.47
2018-06-22T22:20:35.976Z,10.70
2018-06-22T22:23:04.859Z,11.53
2018-06-22T22:25:33.440Z,11.50
2018-06-22T22:28:01.942Z,14.63
2018-06-22T22:30:30.586Z,14.83
2018-06-22T22:32:59.135Z,13.27
2018-06-22T22:35:27.983Z,12.83
2018-06-22T22:37:56.552Z,18.30
2018-06-22T22:40:25.088Z,16.47
2018-06-22T22:42:53.648Z,12.53
2018-06-22T22:45:22.339Z,14.20
2018-06-22T22:47:51.156Z,11.70
2018-06-22T22:50:19.697Z,10.37
2018-06-22T22:52:48.375Z,13.83
2018-06-22T22:55:17.084Z,16.40
2018-06-22T22:57:45.848Z,16.97
2018-06-22T23:00:14.556Z,17.13
2018-06-22T23:02:43.448Z,14.10
2018-06-22T23:05:11.980Z,14.10
2018-06-22T23:07:40.554Z,14.30
2018-06-22T23:10:09.091Z,13.47
2018-06-22T23:12:37.842Z,14.67
2018-06-22T23:15:06.957Z,13.50
2018-06-22T23:17:35.329Z,18.23
2018-06-22T23:20:04.128Z,16.70
2018-06-22T23:22:43.895Z,14.93
2018-06-22T23:25:12.577Z,14.50
2018-06-22T23:27:41.449Z,12.60
2018-06-22T23:30:10.133Z,12.67
2018-06-22T23:32:38.495Z,18.23
2018-06-22T23:35:07.416Z,14.10
2018-06-22T23:37:36.000Z,16.70
2018-06-22T23:40:04.895Z,8.33
2018-06-22T23:42:33.512Z,12.77
2018-06-22T23:45:02.044Z,20.27
2018-06-22T23:47:30.583Z,14.53
2018-06-22T23:49:59.104Z,13.23
2018-06-22T23:52:27.648Z,16.57
2018-06-22T23:54:56.185Z,16.73
2018-06-22T23:57:24.528Z,15.83
2018-06-22T23:59:53.036Z,16.40
